createdAt,value
2018-12-02T00:00:49.906Z,21.00
2018-12-02T00:01:49.905Z,18.00
2018-12-02T00:02:49.893Z,20.20
2018-12-02T00:03:49.879Z,18.70
2018-12-02T00:04:49.935Z,23.20
2018-12-02T00:05:49.882Z,19.30
2018-12-02T00:06:49.881Z,20.70
2018-12-02T00:07:49.861Z,20.50
2018-12-02T00:08:49.909Z,18.80
2018-12-02T00:09:49.845Z,22.60
2018-12-02T00:10:49.855Z,20.90
2018-12-02T00:11:49.842Z,17.90
2018-12-02T00:12:49.817Z,17.60
2018-12-02T00:13:49.834Z,16.40
2018-12-02T00:14:49.816Z,20.30
2018-12-02T00:15:49.867Z,19.20
2018-12-02T00:16:49.800Z,26.50
2018-12-02T00:17:49.823Z,24.20
2018-12-02T00:18:49.794Z,23.50
2018-12-02T00:19:49.795Z,26.70
2018-12-02T00:20:49.789Z,31.40
2018-12-02T00:21:49.813Z,32.80
2018-12-02T00:22:50.622Z,32.90
2018-12-02T00:23:49.773Z,35.40
2018-12-02T00:24:49.804Z,36.50
2018-12-02T00:25:49.756Z,29.50
2018-12-02T00:26:49.750Z,32.30
2018-12-02T00:27:49.723Z,34.10
2018-12-02T00:28:49.723Z,33.90
2018-12-02T00:29:49.739Z,41.00
2018-12-02T00:30:49.696Z,34.80
2018-12-02T00:31:49.725Z,27.10
2018-12-02T00:32:49.711Z,27.60
2018-12-02T00:33:49.700Z,30.20
2018-12-02T00:34:49.700Z,32.10
2018-12-02T00:35:49.706Z,33.70
2018-12-02T00:36:49.670Z,28.10
2018-12-02T00:37:49.669Z,37.40
2018-12-02T00:38:49.658Z,34.80
2018-12-02T00:39:49.705Z,31.40
2018-12-02T00:40:49.697Z,42.10
2018-12-02T00:41:49.631Z,40.70
2018-12-02T00:42:49.665Z,39.10
2018-12-02T00:43:49.635Z,42.50
2018-12-02T00:44:49.628Z,37.90
2018-12-02T00:45:49.627Z,36.20
2018-12-02T00:46:49.607Z,37.00
2018-12-02T00:47:49.602Z,35.10
2018-12-02T00:48:49.616Z,35.40
2018-12-02T00:49:49.596Z,30.60
2018-12-02T00:50:49.625Z,25.90
2018-12-02T00:51:49.569Z,25.60
2018-12-02T00:52:49.556Z,29.00
2018-12-02T00:53:49.611Z,29.50
2018-12-02T00:54:49.578Z,30.10
2018-12-02T00:55:49.558Z,37.30
2018-12-02T00:56:49.531Z,43.20
2018-12-02T00:57:49.542Z,35.30
2018-12-02T00:58:49.537Z,33.20
2018-12-02T00:59:49.538Z,34.80
2018-12-02T01:00:49.500Z,39.40
2018-12-02T01:01:49.507Z,37.50
2018-12-02T01:02:49.511Z,35.20
2018-12-02T01:03:49.483Z,38.50
2018-12-02T01:04:49.498Z,40.70
2018-12-02T01:05:49.483Z,43.40
2018-12-02T01:06:53.564Z,42.80
2018-12-02T01:07:49.462Z,43.80
2018-12-02T01:08:49.471Z,44.30
2018-12-02T01:09:49.504Z,46.10
2018-12-02T01:10:49.458Z,48.20
2018-12-02T01:11:49.488Z,46.10
2018-12-02T01:12:49.436Z,52.60
2018-12-02T01:13:49.476Z,50.70
2018-12-02T01:14:49.415Z,49.10
2018-12-02T01:15:49.426Z,49.00
2018-12-02T01:16:49.418Z,49.30
2018-12-02T01:17:49.391Z,43.70
2018-12-02T01:18:49.383Z,48.10
2018-12-02T01:19:49.369Z,44.90
2018-12-02T01:20:49.372Z,45.80
2018-12-02T01:21:49.380Z,37.90
2018-12-02T01:22:49.364Z,38.50
2018-12-02T01:23:49.361Z,41.70
2018-12-02T01:24:49.362Z,36.40
2018-12-02T01:25:49.390Z,32.40
2018-12-02T01:26:49.329Z,41.30
2018-12-02T01:27:49.344Z,35.30
2018-12-02T01:28:49.340Z,42.40
2018-12-02T01:29:49.319Z,38.40
2018-12-02T01:30:49.309Z,33.50
2018-12-02T01:31:49.306Z,33.30
2018-12-02T01:32:49.291Z,35.00
2018-12-02T01:33:49.302Z,31.70
2018-12-02T01:34:49.305Z,36.30
2018-12-02T01:35:49.288Z,34.90
2018-12-02T01:36:49.262Z,32.80
2018-12-02T01:37:49.281Z,36.50
2018-12-02T01:38:49.260Z,40.80
2018-12-02T01:39:49.240Z,38.00
2018-12-02T01:40:49.253Z,45.50
2018-12-02T01:41:49.232Z,38.80
2018-12-02T01:42:49.225Z,40.90
2018-12-02T01:43:49.226Z,48.30
2018-12-02T01:44:49.209Z,35.60
2018-12-02T01:45:49.218Z,43.80
2018-12-02T01:46:49.200Z,40.90
2018-12-02T01:47:49.214Z,38.20
2018-12-02T01:48:49.182Z,33.60
2018-12-02T01:49:49.204Z,33.70
2018-12-02T01:50:49.183Z,44.90
2018-12-02T01:51:49.171Z,43.80
2018-12-02T01:52:49.160Z,45.90
2018-12-02T01:53:49.147Z,46.90
2018-12-02T01:54:49.154Z,45.80
2018-12-02T01:55:49.134Z,44.60
2018-12-02T01:56:49.144Z,41.50
2018-12-02T01:57:49.125Z,43.40
2018-12-02T01:58:49.106Z,39.60
2018-12-02T01:59:49.127Z,44.10
2018-12-02T02:00:49.112Z,43.20
2018-12-02T02:01:49.112Z,55.60
2018-12-02T02:02:49.138Z,36.80
2018-12-02T02:03:49.076Z,34.70
2018-12-02T02:04:49.096Z,40.50
2018-12-02T02:05:49.072Z,38.20
2018-12-02T02:06:49.068Z,37.30
2018-12-02T02:07:49.040Z,41.50
2018-12-02T02:08:49.046Z,40.80
2018-12-02T02:09:49.032Z,39.30
2018-12-02T02:10:49.021Z,38.00
2018-12-02T02:11:49.038Z,47.10
2018-12-02T02:12:49.057Z,46.60
2018-12-02T02:13:49.026Z,48.10
2018-12-02T02:14:49.005Z,46.00
2018-12-02T02:15:49.003Z,46.30
2018-12-02T02:16:48.983Z,49.80
2018-12-02T02:17:48.985Z,44.90
2018-12-02T02:18:49.018Z,47.20
2018-12-02T02:19:48.974Z,46.50
2018-12-02T02:20:48.997Z,49.30
2018-12-02T02:21:49.003Z,50.80
2018-12-02T02:22:48.940Z,49.80
2018-12-02T02:23:49.807Z,52.20
2018-12-02T02:24:48.945Z,57.30
2018-12-02T02:25:48.948Z,61.60
2018-12-02T02:26:48.900Z,56.00
2018-12-02T02:27:48.901Z,54.00
2018-12-02T02:28:48.899Z,60.40
2018-12-02T02:29:48.912Z,52.60
2018-12-02T02:30:48.902Z,50.60
2018-12-02T02:31:48.895Z,58.10
2018-12-02T02:32:48.872Z,58.90
2018-12-02T02:33:48.870Z,59.40
2018-12-02T02:34:48.861Z,67.70
2018-12-02T02:35:48.910Z,61.50
2018-12-02T02:36:48.848Z,57.10
2018-12-02T02:37:48.860Z,57.40
2018-12-02T02:38:48.878Z,51.80
2018-12-02T02:39:48.868Z,45.20
2018-12-02T02:40:48.802Z,48.30
2018-12-02T02:41:48.819Z,60.10
2018-12-02T02:42:48.813Z,60.90
2018-12-02T02:43:48.807Z,50.10
2018-12-02T02:44:48.798Z,56.00
2018-12-02T02:45:48.832Z,51.70
2018-12-02T02:46:48.787Z,50.60
2018-12-02T02:47:48.789Z,55.90
2018-12-02T02:48:48.767Z,54.80
2018-12-02T02:49:48.743Z,64.50
2018-12-02T02:50:48.761Z,51.70
2018-12-02T02:51:48.744Z,48.40
2018-12-02T02:52:48.742Z,57.30
2018-12-02T02:53:48.730Z,49.70
2018-12-02T02:54:48.723Z,54.40
2018-12-02T02:55:48.720Z,47.10
2018-12-02T02:56:48.710Z,45.50
2018-12-02T02:57:48.706Z,50.30
2018-12-02T02:58:48.689Z,50.90
2018-12-02T02:59:48.719Z,50.20
2018-12-02T03:00:48.683Z,50.10
2018-12-02T03:01:48.672Z,48.40
2018-12-02T03:02:48.660Z,55.40
2018-12-02T03:03:48.662Z,52.80
2018-12-02T03:04:48.652Z,51.50
2018-12-02T03:05:48.634Z,59.70
2018-12-02T03:06:48.619Z,55.20
2018-12-02T03:07:48.634Z,67.40
2018-12-02T03:08:48.622Z,63.40
2018-12-02T03:09:48.622Z,63.00
2018-12-02T03:10:48.597Z,65.80
2018-12-02T03:11:48.616Z,62.00
2018-12-02T03:12:48.650Z,72.00
2018-12-02T03:13:48.582Z,74.90
2018-12-02T03:14:48.578Z,69.50
2018-12-02T03:15:48.547Z,83.50
2018-12-02T03:16:48.601Z,70.90
2018-12-02T03:17:48.582Z,71.80
2018-12-02T03:18:48.530Z,60.50
2018-12-02T03:19:48.542Z,59.70
2018-12-02T03:20:48.538Z,56.40
2018-12-02T03:21:48.532Z,54.40
2018-12-02T03:22:48.528Z,56.60
2018-12-02T03:23:48.525Z,51.60
2018-12-02T03:24:48.518Z,56.20
2018-12-02T03:25:48.492Z,52.60
2018-12-02T03:26:48.477Z,44.10
2018-12-02T03:27:48.485Z,53.70
2018-12-02T03:28:48.518Z,53.00
2018-12-02T03:29:48.454Z,52.40
2018-12-02T03:30:48.461Z,54.70
2018-12-02T03:31:48.450Z,48.90
2018-12-02T03:32:48.465Z,47.30
2018-12-02T03:33:48.428Z,50.60
2018-12-02T03:34:48.420Z,49.90
2018-12-02T03:35:48.473Z,47.10
2018-12-02T03:36:48.416Z,49.10
2018-12-02T03:37:48.459Z,50.50
2018-12-02T03:38:48.407Z,51.70
2018-12-02T03:39:48.382Z,61.30
2018-12-02T03:40:48.384Z,54.40
2018-12-02T03:41:48.379Z,61.60
2018-12-02T03:42:48.367Z,48.00
2018-12-02T03:43:48.397Z,64.50
2018-12-02T03:44:48.364Z,73.30
2018-12-02T03:45:48.362Z,63.90
2018-12-02T03:46:48.333Z,63.70
2018-12-02T03:47:48.381Z,70.80
2018-12-02T03:48:48.326Z,54.30
2018-12-02T03:49:48.305Z,62.90
2018-12-02T03:50:48.360Z,64.50
2018-12-02T03:51:48.318Z,72.50
2018-12-02T03:52:48.304Z,54.20
2018-12-02T03:53:48.293Z,66.50
2018-12-02T03:54:48.289Z,53.70
2018-12-02T03:55:48.281Z,59.00
2018-12-02T03:56:48.281Z,60.40
2018-12-02T03:57:48.256Z,61.20
2018-12-02T03:58:48.276Z,52.30
2018-12-02T03:59:48.245Z,76.20
2018-12-02T04:00:48.263Z,70.40
2018-12-02T04:01:48.234Z,74.10
2018-12-02T04:02:48.229Z,77.10
2018-12-02T04:03:48.213Z,81.40
2018-12-02T04:04:48.227Z,72.30
2018-12-02T04:05:48.218Z,63.90
2018-12-02T04:06:48.212Z,65.40
2018-12-02T04:07:48.230Z,68.00
2018-12-02T04:08:48.198Z,59.20
2018-12-02T04:09:48.187Z,69.40
2018-12-02T04:10:48.158Z,62.10
2018-12-02T04:11:48.177Z,58.40
2018-12-02T04:12:48.199Z,65.40
2018-12-02T04:13:48.198Z,65.00
2018-12-02T04:14:48.128Z,67.00
2018-12-02T04:15:48.134Z,71.60
2018-12-02T04:16:48.120Z,75.00
2018-12-02T04:17:48.120Z,74.60
2018-12-02T04:18:48.117Z,75.10
2018-12-02T04:19:48.118Z,61.40
2018-12-02T04:20:48.104Z,71.60
2018-12-02T04:21:48.100Z,71.80
2018-12-02T04:22:48.120Z,80.60
2018-12-02T04:23:48.097Z,76.70
2018-12-02T04:24:48.112Z,75.10
2018-12-02T04:25:48.070Z,85.60
2018-12-02T04:26:48.312Z,80.30
2018-12-02T04:27:48.052Z,75.10
2018-12-02T04:28:48.057Z,78.40
2018-12-02T04:29:48.016Z,79.00
2018-12-02T04:30:48.045Z,81.50
2018-12-02T04:31:48.018Z,83.70
2018-12-02T04:32:48.018Z,77.00
2018-12-02T04:33:48.015Z,84.50
2018-12-02T04:34:48.020Z,88.50
2018-12-02T04:35:48.034Z,82.30
2018-12-02T04:36:47.980Z,83.30
2018-12-02T04:37:47.992Z,90.90
2018-12-02T04:38:47.962Z,89.20
2018-12-02T04:39:47.969Z,82.80
2018-12-02T04:40:47.969Z,84.10
2018-12-02T04:41:47.940Z,64.90
2018-12-02T04:42:47.954Z,82.60
2018-12-02T04:43:47.942Z,89.30
2018-12-02T04:44:47.915Z,78.60
2018-12-02T04:45:47.914Z,81.50
2018-12-02T04:46:47.910Z,76.60
2018-12-02T04:47:47.903Z,81.60
2018-12-02T04:48:47.906Z,75.40
2018-12-02T04:49:47.883Z,68.50
2018-12-02T04:50:47.884Z,72.70
2018-12-02T04:51:47.878Z,80.10
2018-12-02T04:52:47.909Z,76.30
2018-12-02T04:53:47.865Z,71.80
2018-12-02T04:54:47.847Z,83.70
2018-12-02T04:55:47.860Z,70.20
2018-12-02T04:56:47.833Z,78.30
2018-12-02T04:57:47.826Z,63.70
2018-12-02T04:58:48.073Z,70.80
2018-12-02T04:59:47.867Z,63.20
2018-12-02T05:00:47.818Z,65.30
2018-12-02T05:01:47.818Z,69.80
2018-12-02T05:02:47.786Z,67.60
2018-12-02T05:03:47.782Z,69.40
2018-12-02T05:04:47.787Z,79.00
2018-12-02T05:05:47.791Z,80.00
2018-12-02T05:06:47.773Z,79.90
2018-12-02T05:07:47.757Z,63.70
2018-12-02T05:08:47.771Z,64.90
2018-12-02T05:09:47.758Z,73.60
2018-12-02T05:10:47.774Z,59.20
2018-12-02T05:11:47.718Z,59.20
2018-12-02T05:12:47.718Z,65.50
2018-12-02T05:13:47.754Z,68.60
2018-12-02T05:14:47.695Z,59.60
2018-12-02T05:15:47.701Z,52.80
2018-12-02T05:16:47.702Z,58.00
2018-12-02T05:17:47.687Z,63.90
2018-12-02T05:18:47.668Z,68.90
2018-12-02T05:19:47.919Z,58.40
2018-12-02T05:20:47.709Z,59.80
2018-12-02T05:21:47.659Z,61.30
2018-12-02T05:22:47.698Z,56.90
2018-12-02T05:23:47.651Z,63.80
2018-12-02T05:24:47.647Z,67.80
2018-12-02T05:25:47.638Z,57.50
2018-12-02T05:26:47.631Z,56.90
2018-12-02T05:27:47.620Z,61.40
2018-12-02T05:28:47.643Z,53.50
2018-12-02T05:29:47.587Z,58.20
2018-12-02T05:30:47.580Z,68.60
2018-12-02T05:31:47.578Z,59.40
2018-12-02T05:32:47.600Z,63.00
2018-12-02T05:33:47.563Z,52.20
2018-12-02T05:34:47.574Z,55.30
2018-12-02T05:35:47.543Z,42.80
2018-12-02T05:36:47.561Z,38.80
2018-12-02T05:37:47.535Z,38.60
2018-12-02T05:38:47.524Z,33.60
2018-12-02T05:39:47.542Z,39.80
2018-12-02T05:40:47.522Z,35.90
2018-12-02T05:41:47.510Z,43.20
2018-12-02T05:42:47.490Z,27.50
2018-12-02T05:43:47.513Z,28.20
2018-12-02T05:44:47.479Z,33.30
2018-12-02T05:45:47.487Z,35.00
2018-12-02T05:46:47.475Z,26.80
2018-12-02T05:47:47.462Z,33.70
2018-12-02T05:48:47.459Z,35.00
2018-12-02T05:49:47.457Z,28.20
2018-12-02T05:50:47.440Z,30.10
2018-12-02T05:51:47.441Z,28.40
2018-12-02T05:52:47.436Z,29.40
2018-12-02T05:53:47.410Z,27.50
2018-12-02T05:54:47.421Z,29.90
2018-12-02T05:55:47.403Z,30.00
2018-12-02T05:56:47.387Z,31.80
2018-12-02T05:57:47.381Z,34.50
2018-12-02T05:58:47.383Z,30.60
2018-12-02T05:59:47.382Z,28.90
2018-12-02T06:00:47.351Z,31.90
2018-12-02T06:01:47.361Z,24.90
2018-12-02T06:02:47.359Z,25.80
2018-12-02T06:03:47.334Z,28.10
2018-12-02T06:04:47.348Z,26.30
2018-12-02T06:05:47.311Z,30.90
2018-12-02T06:06:47.318Z,28.50
2018-12-02T06:07:47.319Z,34.00
2018-12-02T06:08:47.348Z,24.40
2018-12-02T06:09:47.303Z,28.90
2018-12-02T06:10:47.307Z,23.00
2018-12-02T06:11:47.285Z,24.50
2018-12-02T06:12:47.277Z,21.90
2018-12-02T06:13:47.252Z,25.70
2018-12-02T06:14:47.303Z,21.80
2018-12-02T06:15:47.251Z,28.00
2018-12-02T06:16:47.292Z,23.50
2018-12-02T06:17:47.224Z,27.90
2018-12-02T06:18:47.232Z,28.00
2018-12-02T06:19:47.232Z,26.30
2018-12-02T06:20:47.201Z,24.30
2018-12-02T06:21:47.216Z,27.90
2018-12-02T06:22:47.172Z,21.90
2018-12-02T06:23:47.209Z,21.90
2018-12-02T06:24:47.524Z,21.30
2018-12-02T06:25:47.152Z,19.20
2018-12-02T06:26:47.171Z,20.50
2018-12-02T06:27:47.146Z,24.50
2018-12-02T06:28:47.128Z,31.10
2018-12-02T06:29:47.184Z,23.30
2018-12-02T06:30:47.236Z,20.70
2018-12-02T06:31:47.134Z,20.50
2018-12-02T06:32:47.093Z,26.30
2018-12-02T06:33:47.153Z,24.30
2018-12-02T06:34:47.146Z,22.90
2018-12-02T06:35:47.103Z,25.30
2018-12-02T06:36:47.085Z,17.70
2018-12-02T06:37:47.081Z,20.80
2018-12-02T06:38:47.063Z,22.60
2018-12-02T06:39:47.065Z,20.50
2018-12-02T06:40:47.041Z,16.60
2018-12-02T06:41:47.061Z,19.50
2018-12-02T06:42:47.030Z,21.30
2018-12-02T06:43:47.069Z,19.30
2018-12-02T06:44:47.032Z,16.30
2018-12-02T06:45:47.005Z,14.40
2018-12-02T06:46:47.001Z,16.10
2018-12-02T06:47:46.988Z,13.20
2018-12-02T06:48:46.988Z,13.80
2018-12-02T06:49:46.990Z,13.50
2018-12-02T06:50:47.015Z,14.80
2018-12-02T06:51:46.967Z,13.80
2018-12-02T06:52:46.945Z,14.50
2018-12-02T06:53:46.934Z,13.50
2018-12-02T06:54:46.930Z,14.20
2018-12-02T06:55:46.917Z,14.20
2018-12-02T06:56:46.919Z,14.60
2018-12-02T06:57:46.914Z,13.80
2018-12-02T06:58:46.904Z,12.90
2018-12-02T06:59:46.891Z,14.10
2018-12-02T07:00:46.869Z,13.60
2018-12-02T07:01:46.866Z,17.30
2018-12-02T07:02:46.860Z,19.60
2018-12-02T07:03:46.866Z,13.60
2018-12-02T07:04:46.889Z,18.30
2018-12-02T07:05:46.850Z,17.60
2018-12-02T07:06:46.818Z,12.90
2018-12-02T07:07:46.824Z,16.20
2018-12-02T07:08:46.823Z,16.70
2018-12-02T07:09:46.801Z,18.00
2018-12-02T07:10:46.812Z,20.90
2018-12-02T07:11:46.796Z,18.00
2018-12-02T07:12:46.791Z,18.10
2018-12-02T07:13:46.776Z,17.90
2018-12-02T07:14:46.774Z,19.40
2018-12-02T07:15:46.772Z,23.20
2018-12-02T07:16:46.743Z,17.20
2018-12-02T07:17:46.756Z,17.10
2018-12-02T07:18:46.741Z,12.20
2018-12-02T07:19:46.726Z,17.00
2018-12-02T07:20:46.748Z,15.20
2018-12-02T07:21:46.725Z,12.10
2018-12-02T07:22:46.716Z,22.00
2018-12-02T07:23:46.683Z,14.80
2018-12-02T07:24:46.702Z,16.40
2018-12-02T07:25:46.683Z,16.70
2018-12-02T07:26:46.713Z,19.10
2018-12-02T07:27:46.662Z,17.40
2018-12-02T07:28:46.951Z,17.30
2018-12-02T07:29:46.649Z,15.40
2018-12-02T07:30:46.624Z,18.00
2018-12-02T07:31:46.623Z,14.50
2018-12-02T07:32:46.603Z,16.90
2018-12-02T07:33:46.616Z,18.70
2018-12-02T07:34:46.612Z,17.20
2018-12-02T07:35:46.572Z,15.80
2018-12-02T07:36:46.584Z,16.20
2018-12-02T07:37:46.572Z,15.10
2018-12-02T07:38:46.570Z,16.10
2018-12-02T07:39:46.854Z,18.20
2018-12-02T07:40:46.544Z,16.60
2018-12-02T07:41:46.562Z,24.50
2018-12-02T07:42:46.531Z,25.60
2018-12-02T07:43:46.536Z,21.70
2018-12-02T07:44:46.532Z,24.40
2018-12-02T07:45:46.511Z,24.80
2018-12-02T07:46:46.478Z,24.70
2018-12-02T07:47:46.488Z,24.20
2018-12-02T07:48:46.501Z,21.90
2018-12-02T07:49:46.473Z,17.00
2018-12-02T07:50:46.714Z,18.70
2018-12-02T07:51:46.460Z,19.10
2018-12-02T07:52:46.453Z,17.30
2018-12-02T07:53:46.451Z,20.10
2018-12-02T07:54:46.423Z,20.10
2018-12-02T07:55:46.429Z,21.70
2018-12-02T07:56:46.406Z,21.70
2018-12-02T07:57:46.404Z,23.70
2018-12-02T07:58:46.382Z,24.80
2018-12-02T07:59:46.373Z,25.00
2018-12-02T08:00:46.369Z,28.00
2018-12-02T08:01:46.387Z,24.80
2018-12-02T08:02:46.349Z,27.80
2018-12-02T08:03:46.348Z,33.60
2018-12-02T08:04:46.353Z,21.90
2018-12-02T08:05:46.329Z,20.90
2018-12-02T08:06:46.322Z,26.90
2018-12-02T08:07:46.321Z,20.70
2018-12-02T08:08:46.311Z,27.30
2018-12-02T08:09:46.313Z,24.30
2018-12-02T08:10:46.287Z,25.50
2018-12-02T08:11:46.295Z,31.50
2018-12-02T08:12:46.334Z,32.30
2018-12-02T08:13:46.263Z,30.00
2018-12-02T08:14:46.307Z,35.10
2018-12-02T08:15:46.268Z,25.40
2018-12-02T08:16:46.261Z,24.40
2018-12-02T08:17:46.226Z,33.70
2018-12-02T08:18:46.239Z,24.10
2018-12-02T08:19:46.230Z,33.00
2018-12-02T08:20:46.213Z,24.50
2018-12-02T08:21:46.195Z,28.80
2018-12-02T08:22:51.114Z,25.10
2018-12-02T08:23:46.172Z,29.60
2018-12-02T08:24:46.175Z,25.60
2018-12-02T08:25:46.164Z,34.80
2018-12-02T08:26:46.150Z,23.80
2018-12-02T08:27:46.132Z,26.60
2018-12-02T08:28:46.126Z,26.30
2018-12-02T08:29:46.117Z,30.30
2018-12-02T08:30:46.121Z,28.30
2018-12-02T08:31:46.112Z,25.30
2018-12-02T08:32:46.113Z,27.80
2018-12-02T08:33:46.089Z,40.50
2018-12-02T08:34:46.096Z,30.60
2018-12-02T08:35:46.079Z,34.30
2018-12-02T08:36:46.067Z,28.00
2018-12-02T08:37:46.047Z,24.20
2018-12-02T08:38:46.038Z,33.10
2018-12-02T08:39:46.045Z,27.30
2018-12-02T08:40:46.032Z,24.70
2018-12-02T08:41:46.061Z,28.70
2018-12-02T08:42:46.253Z,25.30
2018-12-02T08:43:46.015Z,29.60
2018-12-02T08:44:46.013Z,32.10
2018-12-02T08:45:45.989Z,25.60
2018-12-02T08:46:45.997Z,29.90
2018-12-02T08:47:45.984Z,22.50
2018-12-02T08:48:45.948Z,22.40
2018-12-02T08:49:45.965Z,31.50
2018-12-02T08:50:45.955Z,27.30
2018-12-02T08:51:45.932Z,37.70
2018-12-02T08:52:45.928Z,31.90
2018-12-02T08:53:46.167Z,29.10
2018-12-02T08:54:45.907Z,27.80
2018-12-02T08:55:45.942Z,28.00
2018-12-02T08:56:45.874Z,20.60
2018-12-02T08:57:45.895Z,21.00
2018-12-02T08:58:45.862Z,18.50
2018-12-02T08:59:45.883Z,18.60
2018-12-02T09:00:45.866Z,18.40
2018-12-02T09:01:45.852Z,18.00
2018-12-02T09:02:45.884Z,19.60
2018-12-02T09:03:45.835Z,14.70
2018-12-02T09:04:45.868Z,17.90
2018-12-02T09:05:45.820Z,13.60
2018-12-02T09:06:45.801Z,13.80
2018-12-02T09:07:45.787Z,17.00
2018-12-02T09:08:45.809Z,12.90
2018-12-02T09:09:45.816Z,13.00
2018-12-02T09:10:46.414Z,10.90
2018-12-02T09:11:45.762Z,10.00
2018-12-02T09:12:45.750Z,5.90
2018-12-02T09:13:45.743Z,6.80
2018-12-02T09:14:45.728Z,5.90
2018-12-02T09:15:45.728Z,6.90
2018-12-02T09:16:45.735Z,5.70
2018-12-02T09:17:45.740Z,6.90
2018-12-02T09:18:45.699Z,6.20
2018-12-02T09:19:45.707Z,7.50
2018-12-02T09:20:45.708Z,7.30
2018-12-02T09:21:45.708Z,5.40
2018-12-02T09:22:45.654Z,6.30
2018-12-02T09:23:47.457Z,6.90
2018-12-02T09:24:45.662Z,6.70
2018-12-02T09:25:45.649Z,8.50
2018-12-02T09:26:45.677Z,7.70
2018-12-02T09:27:45.652Z,7.60
2018-12-02T09:28:45.619Z,7.00
2018-12-02T09:29:45.640Z,6.00
2018-12-02T09:30:45.614Z,6.30
2018-12-02T09:31:45.611Z,5.80
2018-12-02T09:32:45.611Z,5.70
2018-12-02T09:33:45.604Z,6.30
2018-12-02T09:34:45.594Z,7.90
2018-12-02T09:35:45.593Z,8.10
2018-12-02T09:36:45.569Z,8.20
2018-12-02T09:37:45.572Z,6.60
2018-12-02T09:38:45.567Z,7.70
2018-12-02T09:39:45.585Z,7.70
2018-12-02T09:40:45.544Z,7.00
2018-12-02T09:41:45.536Z,6.40
2018-12-02T09:42:45.500Z,6.10
2018-12-02T09:43:45.503Z,6.60
2018-12-02T09:44:45.549Z,7.00
2018-12-02T09:45:45.499Z,7.30
2018-12-02T09:46:45.501Z,7.60
2018-12-02T09:47:45.493Z,8.00
2018-12-02T09:48:45.488Z,7.30
2018-12-02T09:49:45.449Z,6.20
2018-12-02T09:50:45.458Z,7.80
2018-12-02T09:51:45.452Z,7.20
2018-12-02T09:52:45.437Z,6.80
2018-12-02T09:53:45.449Z,7.00
2018-12-02T09:54:45.475Z,6.90
2018-12-02T09:55:45.724Z,8.00
2018-12-02T09:56:45.411Z,7.20
2018-12-02T09:57:45.418Z,9.80
2018-12-02T09:58:45.378Z,8.80
2018-12-02T09:59:45.402Z,8.50
2018-12-02T10:00:45.383Z,10.10
2018-12-02T10:01:45.385Z,7.80
2018-12-02T10:02:45.378Z,7.50
2018-12-02T10:03:45.359Z,8.30
2018-12-02T10:04:45.340Z,6.40
2018-12-02T10:05:45.383Z,7.20
2018-12-02T10:06:45.640Z,5.80
2018-12-02T10:07:45.334Z,7.00
2018-12-02T10:08:45.367Z,6.70
2018-12-02T10:09:45.318Z,6.60
2018-12-02T10:10:45.317Z,6.40
2018-12-02T10:11:45.303Z,6.00
2018-12-02T10:12:45.286Z,5.90
2018-12-02T10:13:45.276Z,6.50
2018-12-02T10:14:45.267Z,6.90
2018-12-02T10:15:45.274Z,6.80
2018-12-02T10:16:45.242Z,6.00
2018-12-02T10:17:45.243Z,6.10
2018-12-02T10:18:45.251Z,7.70
2018-12-02T10:19:45.208Z,6.70
2018-12-02T10:20:45.247Z,8.40
2018-12-02T10:21:45.211Z,5.40
2018-12-02T10:22:45.257Z,5.90
2018-12-02T10:23:45.202Z,5.40
2018-12-02T10:24:45.204Z,5.40
2018-12-02T10:25:45.162Z,6.20
2018-12-02T10:26:45.202Z,5.70
2018-12-02T10:27:45.147Z,5.70
2018-12-02T10:28:45.171Z,6.50
2018-12-02T10:29:45.148Z,6.40
2018-12-02T10:30:45.156Z,6.20
2018-12-02T10:31:45.135Z,4.70
2018-12-02T10:32:45.133Z,4.40
2018-12-02T10:33:45.119Z,4.20
2018-12-02T10:34:45.089Z,4.00
2018-12-02T10:35:45.089Z,3.50
2018-12-02T10:36:45.081Z,3.40
2018-12-02T10:37:45.107Z,4.20
2018-12-02T10:38:45.080Z,3.40
2018-12-02T10:39:45.073Z,4.00
2018-12-02T10:40:45.067Z,3.60
2018-12-02T10:41:45.108Z,4.20
2018-12-02T10:42:45.076Z,3.90
2018-12-02T10:43:45.330Z,3.30
2018-12-02T10:44:45.023Z,3.10
2018-12-02T10:45:45.010Z,4.30
2018-12-02T10:46:45.015Z,4.20
2018-12-02T10:47:45.000Z,4.00
2018-12-02T10:48:45.015Z,3.20
2018-12-02T10:49:45.012Z,3.20
2018-12-02T10:50:44.992Z,4.20
2018-12-02T10:51:44.977Z,4.20
2018-12-02T10:52:44.983Z,3.50
2018-12-02T10:53:44.979Z,3.90
2018-12-02T10:54:45.219Z,4.00
2018-12-02T10:55:44.956Z,4.20
2018-12-02T10:56:44.956Z,3.90
2018-12-02T10:57:44.978Z,4.30
2018-12-02T10:58:44.956Z,4.30
2018-12-02T10:59:44.898Z,3.80
2018-12-02T11:00:44.890Z,3.60
2018-12-02T11:01:44.913Z,3.60
2018-12-02T11:02:44.911Z,4.20
2018-12-02T11:03:44.912Z,3.40
2018-12-02T11:04:44.887Z,4.40
2018-12-02T11:05:44.881Z,4.00
2018-12-02T11:06:44.869Z,3.70
2018-12-02T11:07:44.848Z,4.60
2018-12-02T11:08:44.850Z,5.10
2018-12-02T11:09:44.855Z,6.50
2018-12-02T11:10:45.083Z,6.70
2018-12-02T11:11:45.052Z,5.60
2018-12-02T11:12:44.811Z,5.30
2018-12-02T11:13:44.812Z,6.00
2018-12-02T11:14:44.854Z,6.00
2018-12-02T11:15:44.802Z,5.40
2018-12-02T11:16:44.808Z,5.00
2018-12-02T11:17:44.797Z,4.40
2018-12-02T11:18:44.770Z,3.90
2018-12-02T11:19:44.773Z,3.10
2018-12-02T11:20:44.812Z,3.30
2018-12-02T11:21:44.766Z,3.90
2018-12-02T11:22:44.756Z,3.10
2018-12-02T11:23:44.757Z,4.10
2018-12-02T11:24:44.741Z,3.80
2018-12-02T11:25:44.727Z,3.60
2018-12-02T11:26:44.713Z,4.30
2018-12-02T11:27:44.702Z,4.90
2018-12-02T11:28:44.702Z,5.20
2018-12-02T11:29:44.697Z,5.60
2018-12-02T11:30:44.703Z,7.10
2018-12-02T11:31:44.691Z,6.50
2018-12-02T11:32:44.681Z,6.60
2018-12-02T11:33:44.689Z,6.50
2018-12-02T11:34:44.668Z,5.70
2018-12-02T11:35:44.707Z,4.90
2018-12-02T11:36:44.672Z,5.70
2018-12-02T11:37:44.643Z,4.80
2018-12-02T11:38:44.704Z,4.20
2018-12-02T11:39:44.645Z,3.50
2018-12-02T11:40:44.617Z,3.30
2018-12-02T11:41:44.616Z,4.10
2018-12-02T11:42:44.625Z,3.70
2018-12-02T11:43:44.610Z,3.80
2018-12-02T11:44:44.593Z,3.70
2018-12-02T11:45:44.609Z,3.80
2018-12-02T11:46:44.579Z,2.70
2018-12-02T11:47:44.578Z,3.20
2018-12-02T11:48:44.572Z,3.40
2018-12-02T11:49:44.578Z,2.90
2018-12-02T11:50:44.548Z,2.50
2018-12-02T11:51:44.562Z,2.30
2018-12-02T11:52:44.567Z,2.30
2018-12-02T11:53:44.529Z,2.60
2018-12-02T11:54:44.530Z,2.60
2018-12-02T11:55:44.554Z,2.50
2018-12-02T11:56:44.519Z,2.40
2018-12-02T11:57:44.515Z,2.00
2018-12-02T11:58:44.517Z,2.20
2018-12-02T11:59:44.512Z,2.50
2018-12-02T12:00:44.510Z,2.50
2018-12-02T12:01:44.499Z,2.60
2018-12-02T12:02:44.498Z,3.00
2018-12-02T12:03:44.482Z,2.90
2018-12-02T12:04:44.471Z,2.40
2018-12-02T12:05:44.458Z,2.80
2018-12-02T12:06:44.470Z,3.20
2018-12-02T12:07:44.468Z,2.60
2018-12-02T12:08:44.438Z,2.70
2018-12-02T12:09:44.494Z,3.30
2018-12-02T12:10:44.434Z,2.50
2018-12-02T12:11:44.434Z,3.20
2018-12-02T12:12:44.477Z,2.50
2018-12-02T12:13:44.402Z,2.60
2018-12-02T12:14:44.414Z,2.70
2018-12-02T12:15:44.404Z,3.30
2018-12-02T12:16:44.404Z,3.20
2018-12-02T12:17:44.381Z,3.10
2018-12-02T12:18:44.390Z,3.20
2018-12-02T12:19:44.386Z,3.10
2018-12-02T12:20:44.381Z,2.40
2018-12-02T12:21:44.370Z,3.00
2018-12-02T12:22:44.354Z,2.40
2018-12-02T12:23:44.355Z,3.10
2018-12-02T12:24:44.350Z,2.70
2018-12-02T12:25:44.362Z,2.40
2018-12-02T12:26:44.396Z,2.50
2018-12-02T12:27:44.362Z,2.10
2018-12-02T12:28:44.317Z,2.00
2018-12-02T12:29:44.309Z,2.20
2018-12-02T12:30:44.334Z,1.70
2018-12-02T12:31:44.319Z,4.50
2018-12-02T12:32:44.317Z,1.80
2018-12-02T12:33:44.318Z,1.80
2018-12-02T12:34:44.295Z,1.70
2018-12-02T12:35:44.308Z,2.00
2018-12-02T12:36:44.303Z,1.50
2018-12-02T12:37:44.304Z,1.60
2018-12-02T12:38:44.278Z,1.80
2018-12-02T12:39:44.290Z,1.50
2018-12-02T12:40:44.283Z,1.60
2018-12-02T12:41:44.275Z,1.60
2018-12-02T12:42:44.280Z,1.50
2018-12-02T12:43:44.280Z,1.50
2018-12-02T12:44:44.265Z,1.50
2018-12-02T12:45:44.263Z,1.40
2018-12-02T12:46:44.238Z,1.50
2018-12-02T12:47:44.254Z,1.50
2018-12-02T12:48:44.263Z,1.40
2018-12-02T12:49:44.233Z,2.40
2018-12-02T12:50:44.223Z,1.50
2018-12-02T12:51:44.243Z,1.50
2018-12-02T12:52:44.232Z,1.70
2018-12-02T12:53:44.246Z,1.60
2018-12-02T12:54:44.231Z,1.50
2018-12-02T12:55:44.229Z,1.60
2018-12-02T12:56:44.221Z,1.60
2018-12-02T12:57:44.286Z,1.50
2018-12-02T12:58:44.229Z,2.80
2018-12-02T12:59:44.218Z,2.20
2018-12-02T13:00:44.205Z,1.50